Time;durP1;ratioP1;P1;durP2;ratioP2;P2;SDS_P1;SDS_P2;PMS_P1;PMS_P2;Temp;Humidity;BMP_temperature;BMP_pressure;BME280_temperature;BME280_humidity;BME280_pressure;Samples;Min_cycle;Max_cycle;Signal;HPM_P1;HPM_P2
2022/10/18 00:00:42;;;;;;;53.42;26.33;;;;;;;22.01;100.00;102408.81;5012557;28;20039;-50
2022/10/18 00:03:08;;;;;;;58.40;26.73;;;;;;;22.08;100.00;102406.00;4996817;28;20105;-52
2022/10/18 00:05:34;;;;;;;51.22;23.40;;;;;;;22.18;100.00;102406.22;5001760;28;20052;-52
2022/10/18 00:08:00;;;;;;;53.78;26.42;;;;;;;22.20;100.00;102394.03;5002599;28;20039;-55
2022/10/18 00:10:25;;;;;;;54.47;25.00;;;;;;;22.18;100.00;102400.78;5003361;28;20049;-48
2022/10/18 00:12:51;;;;;;;62.35;25.55;;;;;;;22.25;100.00;102395.22;5020646;28;20106;-50
2022/10/18 00:15:17;;;;;;;103.80;27.00;;;;;;;22.38;100.00;102395.00;5000928;28;20038;-51
2022/10/18 00:17:43;;;;;;;74.53;26.85;;;;;;;22.45;100.00;102401.16;5010856;28;20081;-55
2022/10/18 00:20:09;;;;;;;113.82;29.92;;;;;;;22.48;100.00;102399.84;4998697;28;20039;-52
2022/10/18 00:22:37;;;;;;;284.50;35.37;;;;;;;22.55;100.00;102399.72;5000994;28;20031;-52
2022/10/18 00:25:05;;;;;;;247.23;33.93;;;;;;;22.56;100.00;102401.38;4996960;28;20137;-50
2022/10/18 00:27:31;;;;;;;192.07;30.27;;;;;;;22.65;100.00;102408.16;5004863;28;20057;-55
2022/10/18 00:29:58;;;;;;;95.77;27.10;;;;;;;22.67;100.00;102408.75;5006669;28;20039;-52
2022/10/18 00:32:24;;;;;;;249.38;32.35;;;;;;;22.63;100.00;102404.84;5008544;28;20038;-52
2022/10/18 00:34:50;;;;;;;176.30;30.27;;;;;;;22.67;100.00;102402.44;5006734;28;20036;-52
2022/10/18 00:37:15;;;;;;;47.63;23.92;;;;;;;22.78;100.00;102407.06;5008403;28;20108;-53
2022/10/18 00:39:41;;;;;;;51.08;24.95;;;;;;;22.72;100.00;102408.00;4994612;28;20042;-53
2022/10/18 00:42:06;;;;;;;58.30;24.50;;;;;;;22.77;100.00;102413.59;5008572;28;20092;-50
2022/10/18 00:44:32;;;;;;;251.70;29.77;;;;;;;22.70;100.00;102408.25;5003627;28;20034;-54
2022/10/18 00:47:06;;;;;;;165.73;27.37;;;;;;;22.81;100.00;102408.47;5005395;28;20034;-57
2022/10/18 00:49:35;;;;;;;96.57;26.00;;;;;;;22.88;100.00;102401.00;5002137;28;20042;-50
2022/10/18 00:52:08;;;;;;;210.63;28.27;;;;;;;22.80;100.00;102402.19;5004495;28;20034;-51
2022/10/18 00:54:37;;;;;;;208.70;28.43;;;;;;;22.77;100.00;102403.50;5003384;28;20045;-54
2022/10/18 00:57:05;;;;;;;146.43;27.70;;;;;;;22.67;100.00;102403.28;5004573;28;20042;-54
2022/10/18 00:59:31;;;;;;;86.10;24.13;;;;;;;22.70;100.00;102402.81;5012244;28;20035;-50
2022/10/18 01:01:56;;;;;;;122.57;24.17;;;;;;;22.70;100.00;102413.72;5000053;28;20058;-54
2022/10/18 01:04:22;;;;;;;120.47;21.83;;;;;;;22.57;100.00;102413.94;5012820;28;20033;-52
2022/10/18 01:06:47;;;;;;;110.57;23.25;;;;;;;22.47;100.00;102422.72;5002328;28;20051;-53
2022/10/18 01:09:38;;;;;;;96.37;22.17;;;;;;;22.55;100.00;102421.53;4998491;28;20048;-54
2022/10/18 01:12:23;;;;;;;77.83;23.07;;;;;;;22.48;100.00;102422.50;4983248;28;20034;-48
2022/10/18 01:15:05;;;;;;;106.63;22.90;;;;;;;22.43;100.00;102425.09;4997025;28;20039;-51
2022/10/18 01:17:58;;;;;;;108.50;22.50;;;;;;;22.42;100.00;102428.03;5015209;28;20031;-52
2022/10/18 01:20:37;;;;;;;111.07;22.17;;;;;;;22.47;100.00;102430.91;4998719;28;20039;-53
2022/10/18 01:23:21;;;;;;;106.43;23.07;;;;;;;22.39;100.00;102426.63;4999410;28;20042;-54
2022/10/18 01:26:10;;;;;;;61.30;21.83;;;;;;;22.44;100.00;102431.34;4998671;28;20107;-51
2022/10/18 01:29:01;;;;;;;162.23;24.07;;;;;;;22.13;100.00;102436.91;5000927;28;20031;-51
2022/10/18 01:31:35;;;;;;;188.73;27.40;;;;;;;22.26;100.00;102433.16;5013694;28;20032;-49
2022/10/18 01:34:02;;;;;;;175.83;25.87;;;;;;;;;;5000740;28;20035;-52
2022/10/18 01:36:31;;;;;;;170.73;26.90;;;;;;;22.28;100.00;102433.75;4999389;28;20054;-52
2022/10/18 01:39:00;;;;;;;69.83;21.93;;;;;;;22.40;100.00;102430.16;5000827;28;20041;-54
2022/10/18 01:41:27;;;;;;;66.40;20.87;;;;;;;22.40;100.00;102428.28;4996582;28;20031;-50
2022/10/18 01:43:58;;;;;;;95.77;22.40;;;;;;;22.41;100.00;102424.50;5000671;28;20034;-50
2022/10/18 01:46:25;;;;;;;73.00;22.37;;;;;;;22.35;100.00;102423.53;5005969;28;20031;-56
2022/10/18 01:48:52;;;;;;;170.00;26.80;;;;;;;22.25;100.00;102422.47;4999213;28;20069;-55
2022/10/18 01:51:21;;;;;;;113.37;26.47;;;;;;;22.25;100.00;102422.47;5005423;28;20062;-54
2022/10/18 01:53:47;;;;;;;134.53;26.93;;;;;;;22.14;100.00;102430.38;5000671;28;20050;-56
2022/10/18 01:56:41;;;;;;;54.55;22.15;;;;;;;22.08;100.00;102430.50;5016527;28;20086;-54
2022/10/18 01:59:26;;;;;;;108.20;26.07;;;;;;;22.06;100.00;102430.75;5000841;28;20096;-56
2022/10/18 02:02:08;;;;;;;59.53;23.30;;;;;;;22.10;100.00;102420.22;5003270;28;20031;-55
2022/10/18 02:04:48;;;;;;;43.73;20.27;;;;;;;22.14;100.00;102424.13;5001134;28;20046;-56
2022/10/18 02:07:43;;;;;;;58.83;22.33;;;;;;;22.06;100.00;102426.13;4997236;28;20007;-53
2022/10/18 02:10:23;;;;;;;50.60;20.70;;;;;;;22.00;100.00;102426.22;4989133;28;20077;-52
2022/10/18 02:12:51;;;;;;;65.57;22.40;;;;;;;21.98;100.00;102423.72;5003369;28;20045;-53
2022/10/18 02:15:22;;;;;;;57.07;21.37;;;;;;;21.96;100.00;102430.50;5000861;28;20038;-54
2022/10/18 02:17:49;;;;;;;101.80;23.97;;;;;;;21.92;100.00;102416.50;4998537;28;20165;-54
2022/10/18 02:20:19;;;;;;;195.43;27.10;;;;;;;21.84;100.00;102427.75;4996771;28;20046;-54
2022/10/18 02:22:47;;;;;;;84.40;21.00;;;;;;;21.94;100.00;102427.19;5012865;28;20042;-52
2022/10/18 02:25:19;;;;;;;57.50;22.07;;;;;;;21.89;100.00;102423.25;4998120;28;20037;-55
2022/10/18 02:27:45;;;;;;;85.93;22.73;;;;;;;21.99;100.00;102419.13;5004610;28;20046;-52
2022/10/18 02:30:11;;;;;;;127.82;23.38;;;;;;;22.06;100.00;102419.84;4998298;28;20056;-54
2022/10/18 02:32:46;;;;;;;134.63;22.70;;;;;;;22.00;100.00;102415.34;4995307;28;20060;-53
2022/10/18 02:35:36;;;;;;;164.27;24.10;;;;;;;21.99;100.00;102413.69;4999419;28;20034;-55
2022/10/18 02:38:04;;;;;;;173.60;25.10;;;;;;;21.88;100.00;102416.13;5001652;28;20034;-53
2022/10/18 02:40:30;;;;;;;137.77;21.30;;;;;;;21.80;100.00;102415.63;5001238;28;20030;-55
2022/10/18 02:42:57;;;;;;;111.25;20.88;;;;;;;21.83;100.00;102416.00;4996294;28;20102;-55
2022/10/18 02:45:24;;;;;;;88.30;19.37;;;;;;;21.88;100.00;102418.84;5004318;28;20045;-50
2022/10/18 02:47:50;;;;;;;83.73;20.27;;;;;;;21.86;100.00;102417.44;4992945;28;20078;-51
2022/10/18 02:50:16;;;;;;;107.53;19.50;;;;;;;21.87;100.00;102428.09;5002156;28;20050;-51
2022/10/18 02:52:42;;;;;;;67.55;18.15;;;;;;;21.85;100.00;102429.41;5004933;28;20049;-54
2022/10/18 02:55:08;;;;;;;157.18;22.15;;;;;;;21.91;100.00;102440.19;5011111;28;20035;-49
2022/10/18 02:57:34;;;;;;;59.15;16.10;;;;;;;21.94;100.00;102435.34;5001287;28;20027;-55
2022/10/18 03:00:00;;;;;;;70.65;16.70;;;;;;;21.86;100.00;102436.50;5000499;28;20037;-54
2022/10/18 03:02:26;;;;;;;77.23;18.73;;;;;;;21.84;100.00;102439.44;5005606;28;20060;-53
2022/10/18 03:04:51;;;;;;;66.65;17.42;;;;;;;21.83;100.00;102436.97;5006129;28;20046;-51
2022/10/18 03:07:17;;;;;;;36.42;16.25;;;;;;;21.84;100.00;102444.09;5001205;28;20042;-55
2022/10/18 03:09:43;;;;;;;47.08;16.45;;;;;;;21.86;100.00;102448.22;4999750;28;20035;-54
2022/10/18 03:12:08;;;;;;;37.55;14.98;;;;;;;21.77;100.00;102450.44;5001192;28;20034;-50
2022/10/18 03:14:34;;;;;;;37.35;16.40;;;;;;;21.64;100.00;102445.16;4998500;28;20049;-50
2022/10/18 03:16:59;;;;;;;28.90;15.93;;;;;;;21.46;100.00;102435.97;5007979;28;20042;-54
2022/10/18 03:19:25;;;;;;;33.05;14.45;;;;;;;21.47;100.00;102434.09;5007650;28;20054;-53
2022/10/18 03:21:50;;;;;;;39.72;14.63;;;;;;;21.27;100.00;102431.63;4993986;28;20030;-51
2022/10/18 03:24:16;;;;;;;64.47;16.58;;;;;;;21.34;100.00;102430.50;5008476;28;20066;-50
2022/10/18 03:26:41;;;;;;;55.05;16.08;;;;;;;21.48;100.00;102422.97;5002307;28;20049;-51
2022/10/18 03:29:08;;;;;;;45.83;14.63;;;;;;;21.50;100.00;102433.66;4996056;28;20035;-54
2022/10/18 03:31:34;;;;;;;64.17;16.07;;;;;;;21.33;100.00;102433.44;5013097;28;20038;-51
2022/10/18 03:33:59;;;;;;;46.53;15.65;;;;;;;21.40;100.00;102434.19;5004464;28;20042;-51
2022/10/18 03:36:25;;;;;;;28.57;15.50;;;;;;;21.29;100.00;102443.97;4999482;28;20042;-53
2022/10/18 03:38:50;;;;;;;51.53;16.15;;;;;;;21.27;100.00;102439.78;5001749;28;20039;-50
2022/10/18 03:41:16;;;;;;;52.92;16.90;;;;;;;21.31;100.00;102436.41;5003035;28;20102;-52
2022/10/18 03:43:41;;;;;;;53.05;17.35;;;;;;;21.30;100.00;102433.88;4994393;28;20061;-52
2022/10/18 03:46:07;;;;;;;51.30;17.03;;;;;;;21.23;100.00;102433.16;5007881;28;20072;-49
2022/10/18 03:48:32;;;;;;;53.17;17.40;;;;;;;21.22;100.00;102439.66;5007002;28;20210;-50
2022/10/18 03:50:58;;;;;;;132.13;18.33;;;;;;;21.22;100.00;102445.09;4996183;28;20039;-55
2022/10/18 03:53:23;;;;;;;62.22;16.80;;;;;;;21.29;100.00;102433.06;5002868;28;20074;-52
2022/10/18 03:55:53;;;;;;;60.72;17.83;;;;;;;20.97;100.00;102437.84;5001517;28;20035;-53
2022/10/18 03:58:19;;;;;;;57.57;16.53;;;;;;;21.14;100.00;102430.75;5000802;28;20046;-51
2022/10/18 04:00:48;;;;;;;29.33;15.80;;;;;;;21.28;100.00;102433.28;5008496;28;20021;-51
2022/10/18 04:03:14;;;;;;;25.30;15.97;;;;;;;21.30;100.00;102425.72;4999988;28;20041;-51
2022/10/18 04:05:39;;;;;;;49.40;16.63;;;;;;;21.23;100.00;102422.28;5010891;28;20047;-53
2022/10/18 04:08:05;;;;;;;25.00;15.50;;;;;;;21.12;100.00;102426.59;5003068;28;20039;-54
2022/10/18 04:10:30;;;;;;;54.63;17.58;;;;;;;21.18;100.00;102418.34;5000636;28;20026;-52
2022/10/18 04:12:56;;;;;;;50.20;16.03;;;;;;;21.24;100.00;102423.94;4995932;28;20077;-52
2022/10/18 04:15:21;;;;;;;49.20;15.95;;;;;;;21.15;100.00;102429.69;4998745;28;20049;-50
2022/10/18 04:17:47;;;;;;;43.22;16.08;;;;;;;21.12;100.00;102427.44;4996806;28;20043;-55
2022/10/18 04:20:12;;;;;;;27.73;15.53;;;;;;;21.25;100.00;102431.03;4995282;28;20034;-54
2022/10/18 04:22:38;;;;;;;28.40;15.60;;;;;;;21.27;100.00;102432.47;5004854;28;20037;-52
2022/10/18 04:25:04;;;;;;;46.05;16.95;;;;;;;21.18;100.00;102431.94;5007203;28;20095;-53
2022/10/18 04:27:30;;;;;;;59.38;16.88;;;;;;;21.19;100.00;102430.91;4995336;28;20035;-56
2022/10/18 04:29:55;;;;;;;34.13;16.58;;;;;;;21.33;100.00;102439.72;4994587;28;20102;-54
2022/10/18 04:32:21;;;;;;;42.13;15.73;;;;;;;21.30;100.00;102433.88;4995235;28;20060;-53
2022/10/18 04:34:46;;;;;;;27.70;15.40;;;;;;;21.24;100.00;102435.66;5004901;28;20035;-53
2022/10/18 04:37:12;;;;;;;31.93;15.57;;;;;;;21.20;100.00;102435.28;5002424;28;20039;-54
2022/10/18 04:39:37;;;;;;;47.60;15.05;;;;;;;21.22;100.00;102431.50;4996896;28;20034;-53
2022/10/18 04:42:03;;;;;;;56.93;16.00;;;;;;;21.22;100.00;102423.34;5015481;28;20038;-54
2022/10/18 04:44:28;;;;;;;42.53;15.07;;;;;;;21.15;100.00;102431.56;5001277;28;20038;-56
2022/10/18 04:46:53;;;;;;;47.73;15.83;;;;;;;21.15;100.00;102439.72;4993264;28;20023;-55
2022/10/18 04:49:19;;;;;;;45.35;15.38;;;;;;;21.12;100.00;102438.31;4991513;28;20038;-51
2022/10/18 04:51:45;;;;;;;43.63;15.70;;;;;;;21.01;100.00;102439.91;4991401;28;20039;-50
2022/10/18 04:54:11;;;;;;;26.90;15.73;;;;;;;21.02;100.00;102432.56;5001380;28;20081;-54
2022/10/18 04:56:37;;;;;;;36.58;15.55;;;;;;;20.92;100.00;102428.50;4992142;28;20035;-52
2022/10/18 04:59:02;;;;;;;26.25;14.68;;;;;;;20.93;100.00;102434.75;4993835;28;20042;-53
2022/10/18 05:01:28;;;;;;;38.13;15.50;;;;;;;20.91;100.00;102447.75;4988558;28;20085;-55
2022/10/18 05:03:53;;;;;;;46.37;15.43;;;;;;;20.79;100.00;102450.34;4997294;28;20034;-53
2022/10/18 05:06:21;;;;;;;50.03;25.23;;;;;;;20.88;100.00;102456.34;5002978;28;20027;-53
2022/10/18 05:08:46;;;;;;;106.07;57.17;;;;;;;21.06;100.00;102450.94;4992921;28;20031;-54
2022/10/18 05:11:12;;;;;;;87.70;43.40;;;;;;;21.06;100.00;102440.06;4992577;28;20127;-54
2022/10/18 05:13:37;;;;;;;118.22;61.45;;;;;;;21.00;100.00;102438.25;4992455;28;20035;-56
2022/10/18 05:16:04;;;;;;;86.77;44.47;;;;;;;21.12;100.00;102448.34;4989930;28;20038;-54
2022/10/18 05:18:30;;;;;;;53.90;16.97;;;;;;;20.82;100.00;102446.38;4997134;28;20269;-56
2022/10/18 05:20:56;;;;;;;68.30;16.92;;;;;;;20.78;100.00;102444.09;4995233;28;20050;-55
2022/10/18 05:23:22;;;;;;;59.90;16.58;;;;;;;20.84;100.00;102442.38;4994206;28;20053;-54
2022/10/18 05:25:48;;;;;;;59.67;17.23;;;;;;;20.91;100.00;102453.19;5004775;28;20054;-54
2022/10/18 05:28:14;;;;;;;48.72;16.60;;;;;;;20.94;100.00;102444.56;5006767;28;20042;-51
2022/10/18 05:30:40;;;;;;;44.92;16.58;;;;;;;20.92;100.00;102455.69;5000078;28;20034;-54
2022/10/18 05:33:06;;;;;;;87.22;18.00;;;;;;;20.72;100.00;102455.84;5007459;28;20031;-55
2022/10/18 05:35:33;;;;;;;76.78;16.67;;;;;;;20.75;100.00;102457.28;5008186;28;20027;-53
2022/10/18 05:38:01;;;;;;;75.93;16.50;;;;;;;20.82;100.00;102454.53;4995964;28;20039;-55
2022/10/18 05:40:27;;;;;;;115.67;17.23;;;;;;;20.86;100.00;102453.03;4995895;28;20090;-57
2022/10/18 05:42:53;;;;;;;69.63;16.73;;;;;;;20.81;100.00;102453.69;5000354;28;20038;-53
2022/10/18 05:45:18;;;;;;;105.13;17.83;;;;;;;20.91;100.00;102451.31;4999747;28;20051;-55
2022/10/18 05:47:44;;;;;;;126.93;18.50;;;;;;;20.86;100.00;102461.19;5000401;28;20038;-56
2022/10/18 05:50:09;;;;;;;81.43;17.13;;;;;;;20.79;100.00;102461.22;4993928;28;20065;-55
2022/10/18 05:52:35;;;;;;;68.03;16.27;;;;;;;20.75;100.00;102468.16;4996948;28;20065;-54
2022/10/18 05:55:00;;;;;;;60.07;15.43;;;;;;;20.79;100.00;102466.66;4997026;28;20031;-56
2022/10/18 05:57:26;;;;;;;86.82;15.63;;;;;;;20.68;100.00;102472.84;5000623;28;20030;-53
2022/10/18 05:59:51;;;;;;;106.13;17.48;;;;;;;20.62;100.00;102478.09;4996581;28;20054;-53
2022/10/18 06:02:17;;;;;;;144.47;19.97;;;;;;;20.58;100.00;102485.03;4993939;28;20038;-55
2022/10/18 06:04:42;;;;;;;109.35;17.48;;;;;;;20.52;100.00;102490.53;4994407;28;20030;-55
2022/10/18 06:07:10;;;;;;;91.82;18.13;;;;;;;20.51;100.00;102500.59;4996382;28;20022;-57
2022/10/18 06:09:36;;;;;;;81.30;18.03;;;;;;;20.59;100.00;102494.84;4994679;28;20035;-56
2022/10/18 06:12:03;;;;;;;88.68;16.48;;;;;;;20.68;100.00;102498.13;4997495;28;20036;-54
2022/10/18 06:14:29;;;;;;;90.47;17.00;;;;;;;20.70;100.00;102490.56;4993223;28;20050;-52
2022/10/18 06:16:55;;;;;;;73.47;15.77;;;;;;;20.69;100.00;102488.91;4999321;28;20026;-51
2022/10/18 06:19:22;;;;;;;82.50;16.25;;;;;;;20.69;100.00;102493.53;5000748;28;20068;-51
2022/10/18 06:21:48;;;;;;;102.00;15.50;;;;;;;20.68;100.00;102497.31;5004368;28;20027;-52
2022/10/18 06:24:13;;;;;;;91.63;14.98;;;;;;;20.58;100.00;102514.13;4999375;28;20026;-53
2022/10/18 06:26:38;;;;;;;64.30;14.93;;;;;;;20.57;100.00;102516.00;4997453;28;20110;-56
2022/10/18 06:29:04;;;;;;;57.90;13.85;;;;;;;20.60;100.00;102512.00;5001221;28;20087;-53
2022/10/18 06:31:30;;;;;;;59.78;13.70;;;;;;;20.46;100.00;102516.72;4994613;28;20043;-54
2022/10/18 06:33:59;;;;;;;33.90;13.27;;;;;;;20.55;100.00;102514.56;4999893;28;20081;-51
2022/10/18 06:36:25;;;;;;;59.53;12.70;;;;;;;20.50;100.00;102526.09;4998904;28;20031;-53
2022/10/18 06:38:52;;;;;;;45.50;14.13;;;;;;;20.48;100.00;102522.78;5008346;28;20098;-55
2022/10/18 06:41:19;;;;;;;41.93;12.97;;;;;;;20.34;100.00;102527.47;4996341;28;20030;-50
2022/10/18 06:43:49;;;;;;;39.50;12.25;;;;;;;20.29;100.00;102527.28;5015051;28;20269;-54
2022/10/18 06:46:14;;;;;;;40.87;12.80;;;;;;;20.29;100.00;102521.84;5000005;28;20042;-50
2022/10/18 06:48:40;;;;;;;39.03;13.77;;;;;;;20.24;100.00;102535.28;4997944;28;20101;-54
2022/10/18 06:51:07;;;;;;;48.47;13.07;;;;;;;22.82;100.00;102550.06;5002078;28;20061;-54
2022/10/18 06:53:35;;;;;;;44.83;11.97;;;;;;;21.94;100.00;102545.09;5003106;28;20054;-55
2022/10/18 06:56:04;;;;;;;32.63;10.70;;;;;;;21.76;100.00;102556.88;5007346;28;20054;-54
2022/10/18 06:58:29;;;;;;;40.43;11.13;;;;;;;21.94;100.00;102561.44;5006972;28;20826;-52
2022/10/18 07:00:55;;;;;;;39.85;11.50;;;;;;;21.69;100.00;102556.13;5005350;28;20038;-56
2022/10/18 07:03:21;;;;;;;39.90;12.27;;;;;;;23.10;100.00;102570.31;5003897;28;20034;-55
2022/10/18 07:05:48;;;;;;;33.05;12.40;;;;;;;23.20;100.00;102580.66;5001967;28;20037;-56
2022/10/18 07:08:16;;;;;;;39.50;11.27;;;;;;;23.38;100.00;102576.97;4998277;28;20055;-51
2022/10/18 07:10:41;;;;;;;44.37;10.93;;;;;;;22.92;100.00;102584.94;5005572;28;20382;-55
2022/10/18 07:13:07;;;;;;;72.18;11.60;;;;;;;23.48;100.00;102587.28;4999068;28;20031;-54
2022/10/18 07:15:37;;;;;;;38.80;9.52;;;;;;;23.19;100.00;102589.91;5001073;28;20090;-53
2022/10/18 07:18:02;;;;;;;50.27;9.30;;;;;;;23.32;100.00;102588.84;5010770;28;20037;-54
2022/10/18 07:20:28;;;;;;;72.30;9.27;;;;;;;23.29;100.00;102584.69;4996679;28;20066;-55
2022/10/18 07:22:56;;;;;;;56.75;8.50;;;;;;;23.34;100.00;102593.00;5011131;28;20051;-55
2022/10/18 07:25:22;;;;;;;64.13;9.73;;;;;;;23.41;100.00;102595.63;4996382;28;20091;-53
2022/10/18 07:27:47;;;;;;;73.70;9.98;;;;;;;22.20;100.00;102592.94;5007023;28;20031;-55
2022/10/18 07:30:12;;;;;;;56.10;10.47;;;;;;;21.90;100.00;102590.22;5003539;28;20046;-53
2022/10/18 07:32:38;;;;;;;64.78;10.45;;;;;;;22.30;100.00;102605.16;4998638;28;20113;-54
2022/10/18 07:35:04;;;;;;;54.88;11.25;;;;;;;22.47;100.00;102606.19;5002429;28;20069;-51
2022/10/18 07:37:30;;;;;;;55.15;10.57;;;;;;;22.56;100.00;102603.97;5009049;28;20058;-53
2022/10/18 07:39:55;;;;;;;51.85;10.80;;;;;;;22.65;100.00;102611.81;5001251;28;20035;-54
2022/10/18 07:42:21;;;;;;;34.63;10.02;;;;;;;22.43;100.00;102620.50;5015109;28;20047;-53
2022/10/18 07:44:47;;;;;;;29.10;9.63;;;;;;;22.56;100.00;102616.75;5006772;28;20046;-48
2022/10/18 07:47:13;;;;;;;35.93;10.87;;;;;;;22.62;100.00;102624.03;5003075;28;20031;-54
2022/10/18 07:49:39;;;;;;;;;;;;;;;22.34;100.00;102622.72;5010685;28;20047;-52
2022/10/18 07:52:04;;;;;;;24.33;11.20;;;;;;;22.56;100.00;102624.94;5018445;28;19914;-55
2022/10/18 07:54:30;;;;;;;30.08;11.23;;;;;;;22.55;100.00;102621.41;4996025;28;20103;-54
2022/10/18 07:56:55;;;;;;;21.73;10.03;;;;;;;22.54;100.00;102619.75;5003279;28;20046;-55
2022/10/18 07:59:21;;;;;;;24.50;9.52;;;;;;;22.67;100.00;102624.16;5002267;28;20027;-52
2022/10/18 08:01:46;;;;;;;24.85;9.82;;;;;;;22.49;100.00;102631.34;5009446;28;20042;-55
2022/10/18 08:04:12;;;;;;;23.53;9.70;;;;;;;22.77;100.00;102639.94;5012211;28;20037;-50
2022/10/18 08:06:38;;;;;;;22.88;10.77;;;;;;;22.74;100.00;102638.50;4996003;28;20084;-55
2022/10/18 08:09:03;;;;;;;21.73;9.77;;;;;;;23.03;100.00;102635.91;5008066;28;20045;-55
2022/10/18 08:11:29;;;;;;;20.05;10.38;;;;;;;23.00;100.00;102644.59;5004437;28;20034;-56
2022/10/18 08:13:55;;;;;;;16.50;9.05;;;;;;;23.14;100.00;102652.56;5003706;28;20038;-53
2022/10/18 08:16:23;;;;;;;13.70;9.23;;;;;;;23.30;100.00;102651.03;5022930;28;20049;-54
2022/10/18 08:18:49;;;;;;;13.83;8.13;;;;;;;23.42;100.00;102648.31;5009733;28;20038;-56
2022/10/18 08:21:17;;;;;;;12.02;7.47;;;;;;;23.77;100.00;102650.16;5005500;28;20043;-53
2022/10/18 08:23:43;;;;;;;13.33;7.80;;;;;;;24.34;100.00;102648.56;5004384;28;20062;-57
2022/10/18 08:26:12;;;;;;;18.65;7.05;;;;;;;24.54;100.00;102650.00;5010727;28;20023;-56
2022/10/18 08:28:37;;;;;;;9.20;6.97;;;;;;;24.97;100.00;102662.25;5008329;28;20048;-55
2022/10/18 08:31:04;;;;;;;16.65;7.43;;;;;;;25.44;100.00;102662.94;5005760;28;20030;-56
2022/10/18 08:33:30;;;;;;;20.10;6.43;;;;;;;26.02;100.00;102673.53;5000568;28;20045;-55
2022/10/18 08:35:57;;;;;;;;;;;;;;;26.52;100.00;102682.63;5015416;28;20030;-54
2022/10/18 08:38:22;;;;;;;10.20;6.10;;;;;;;26.89;100.00;102686.53;5003117;28;19927;-54
2022/10/18 08:40:47;;;;;;;10.93;5.95;;;;;;;27.20;100.00;102684.00;5007037;28;20038;-52
2022/10/18 08:43:29;;;;;;;14.77;6.82;;;;;;;27.73;100.00;102688.75;5006179;28;20039;-53
2022/10/18 08:45:55;;;;;;;12.93;5.50;;;;;;;28.12;100.00;102691.06;5010347;28;20035;-54
2022/10/18 08:48:34;;;;;;;17.08;5.22;;;;;;;28.35;100.00;102683.44;5011527;28;20068;-54
2022/10/18 08:51:02;;;;;;;9.53;5.63;;;;;;;29.01;100.00;102676.34;4994713;28;20051;-57
2022/10/18 08:53:54;;;;;;;12.43;5.17;;;;;;;28.87;100.00;102683.53;5005429;28;20034;-52
2022/10/18 08:56:23;;;;;;;14.17;4.77;;;;;;;29.52;97.63;102685.63;5000229;28;20097;-54
2022/10/18 08:58:49;;;;;;;12.23;3.70;;;;;;;29.92;93.73;102691.28;5017137;28;20062;-55
2022/10/18 09:01:45;;;;;;;12.57;5.22;;;;;;;30.00;92.82;102685.16;5007140;28;20052;-55
2022/10/18 09:04:45;;;;;;;20.60;8.25;;;;;;;30.39;86.98;102686.31;5006341;28;20138;-52
2022/10/18 09:07:18;;;;;;;17.08;5.93;;;;;;;30.94;81.28;102695.56;5002585;28;20029;-52
2022/10/18 09:10:25;;;;;;;14.32;4.53;;;;;;;31.31;79.64;102694.94;4995991;28;20030;-56
2022/10/18 09:13:48;;;;;;;14.27;3.40;;;;;;;31.69;75.03;102688.69;4992519;28;20066;-55
2022/10/18 09:16:18;;;;;;;11.50;3.13;;;;;;;32.43;70.79;102695.75;5004059;28;20049;-56
2022/10/18 09:19:08;;;;;;;14.85;3.10;;;;;;;32.36;67.66;102708.31;5005241;28;20050;-50
2022/10/18 09:21:48;;;;;;;12.00;3.53;;;;;;;33.16;67.16;102702.84;5005012;28;20038;-55
2022/10/18 09:24:24;;;;;;;8.98;3.10;;;;;;;33.97;62.99;102703.47;5002003;28;20035;-55
2022/10/18 09:26:56;;;;;;;7.47;3.15;;;;;;;34.25;62.26;102695.06;5009569;28;20054;-53
2022/10/18 09:29:54;;;;;;;10.55;3.03;;;;;;;34.79;57.21;102694.31;5009138;28;20031;-57
2022/10/18 09:32:29;;;;;;;9.02;2.83;;;;;;;35.17;54.76;102700.25;5007116;28;20034;-56
2022/10/18 09:35:20;;;;;;;12.15;2.83;;;;;;;35.10;54.75;102713.78;5008078;28;20034;-57
2022/10/18 09:37:47;;;;;;;18.05;4.15;;;;;;;35.12;53.46;102708.75;5013254;28;20030;-57
2022/10/18 09:40:23;;;;;;;7.28;2.75;;;;;;;35.65;51.69;102710.91;5018819;28;20068;-55
2022/10/18 09:42:58;;;;;;;6.95;2.53;;;;;;;35.33;49.82;102707.38;5001951;28;20030;-55
2022/10/18 09:45:33;;;;;;;8.93;2.67;;;;;;;35.57;50.39;102713.34;5004065;28;20068;-58
2022/10/18 09:48:11;;;;;;;15.27;2.72;;;;;;;35.99;47.13;102714.91;4998322;28;20031;-56
2022/10/18 09:50:42;;;;;;;7.93;2.22;;;;;;;36.26;47.18;102721.31;5010902;28;20054;-55
2022/10/18 09:53:34;;;;;;;8.18;2.63;;;;;;;36.61;45.95;102728.84;5001486;28;20035;-58
2022/10/18 09:56:04;;;;;;;6.65;2.70;;;;;;;36.63;45.65;102732.94;5014428;28;20038;-58
2022/10/18 09:58:40;;;;;;;8.95;2.33;;;;;;;36.74;45.85;102722.25;5009839;28;20027;-54
2022/10/18 10:01:08;;;;;;;13.13;2.47;;;;;;;37.17;43.89;102729.69;5009771;28;20061;-58
2022/10/18 10:03:34;;;;;;;9.50;2.53;;;;;;;37.48;42.58;102735.28;5002817;28;20102;-61
2022/10/18 10:06:15;;;;;;;12.93;2.53;;;;;;;37.69;41.49;102724.22;5019040;28;20034;-62
2022/10/18 10:08:52;;;;;;;13.00;2.28;;;;;;;37.55;36.00;102728.06;5004107;28;20030;-59
2022/10/18 10:11:26;;;;;;;12.23;1.83;;;;;;;37.82;37.47;102731.50;5008260;28;20046;-59
2022/10/18 10:13:56;;;;;;;11.63;2.47;;;;;;;38.27;36.28;102729.19;5001850;28;20038;-61
2022/10/18 10:16:22;;;;;;;9.23;2.95;;;;;;;38.47;36.86;102737.91;5001559;28;20035;-55
2022/10/18 10:18:53;;;;;;;6.65;2.08;;;;;;;38.39;34.51;102740.44;5011880;28;20034;-54
2022/10/18 10:21:19;;;;;;;13.15;2.90;;;;;;;37.76;37.25;102738.44;5011059;28;20060;-54
2022/10/18 10:23:53;;;;;;;9.02;1.75;;;;;;;38.75;36.09;102748.47;5002818;28;20094;-55
2022/10/18 10:26:21;;;;;;;9.80;2.75;;;;;;;38.92;35.51;102753.91;5006254;28;20056;-54
2022/10/18 10:28:47;;;;;;;11.10;2.17;;;;;;;39.25;34.46;102753.03;5000744;28;20058;-57
2022/10/18 10:31:27;;;;;;;11.10;2.75;;;;;;;39.88;31.68;102753.00;5014326;28;20015;-57
2022/10/18 10:34:13;;;;;;;9.15;2.03;;;;;;;39.85;31.14;102751.75;5000731;28;20038;-58
2022/10/18 10:36:53;;;;;;;9.23;2.30;;;;;;;40.47;31.20;102759.16;5000837;28;20073;-56
2022/10/18 10:39:21;;;;;;;9.35;2.05;;;;;;;41.44;29.90;102763.69;5003792;28;20034;-57
2022/10/18 10:41:54;;;;;;;8.13;2.92;;;;;;;41.34;29.10;102762.25;5001452;28;20035;-57
2022/10/18 10:44:23;;;;;;;10.60;2.42;;;;;;;41.33;28.70;102757.81;5010543;28;20084;-55
2022/10/18 10:46:50;;;;;;;10.25;2.42;;;;;;;41.12;29.79;102758.88;5004372;28;20094;-59
2022/10/18 10:49:21;;;;;;;10.48;1.95;;;;;;;41.80;29.65;102758.09;5000983;28;20043;-55
2022/10/18 10:51:58;;;;;;;7.50;1.90;;;;;;;41.17;29.12;102759.81;5003436;28;20038;-56
2022/10/18 10:54:25;;;;;;;9.40;1.70;;;;;;;41.69;28.27;102764.28;4998634;28;20079;-57
2022/10/18 10:57:01;;;;;;;10.60;1.52;;;;;;;42.21;29.83;102766.19;5000848;28;20035;-54
2022/10/18 10:59:36;;;;;;;8.13;1.60;;;;;;;42.64;27.14;102761.44;5003413;28;20090;-56
2022/10/18 11:02:19;;;;;;;11.38;1.77;;;;;;;43.00;27.13;102764.06;5012824;28;20039;-54
2022/10/18 11:04:55;;;;;;;4.75;1.30;;;;;;;43.17;29.10;102764.75;5001762;28;20049;-55
2022/10/18 11:07:24;;;;;;;4.97;1.75;;;;;;;43.62;27.02;102765.88;5006757;28;20042;-55
2022/10/18 11:09:58;;;;;;;5.78;1.30;;;;;;;43.97;24.86;102767.56;5005913;28;20103;-56
2022/10/18 11:12:34;;;;;;;8.32;1.55;;;;;;;43.55;26.02;102760.94;5006386;28;20102;-54
2022/10/18 11:15:09;;;;;;;12.73;1.60;;;;;;;43.38;26.97;102767.13;5001670;28;20088;-56
2022/10/18 11:17:46;;;;;;;7.20;1.50;;;;;;;43.34;26.30;102761.44;5008676;28;20042;-54